Aérodrome :
LOGIN :

S'inscrire | Disclaimer

   EN    FR    IT 

 










Légende :    VFR   VFR Marginal   IFR   IFR Intensif   IFR Très Intensif
Visi : 
Plafond : 
>= 8 km
>= 3000ft
5 à 8 km
1000 à 3000 ft
1500m à 5 km
500 à 1000 ft
800 à 1500m
200 à 500 ft
< 800m
< 200 ft
Symboles :   Orages  Brouillard  Fortes neiges  Fortes précipitations  Vent > 20 kt
SIGMETs :   Divers  Orages  Givrage  Turbulence  Onde Orograph.  Cendres Volcan.






- Altitude de l'aérodrome : 1674 ft
- Code IATA : BRN


LSZB - Bern Belp

DERNIER METAR :
  • 211520Z 17010KT 9999 -SHRA FEW040 SCT047 BKN055 15/12 Q1009

METARs EXPIRÉS :
  • 211450Z 15009KT 9999 -RA FEW031TCU SCT041 BKN047 16/12 Q1009
  • 211420Z 16009KT 9999 FEW034 SCT042 BKN047 17/13 Q1009
  • 211350Z 15008KT 120V190 9999 FEW040 SCT100CB 17/12 Q1009
  • 211320Z 16005KT 130V200 9999 FEW050 SCT060 BKN070 16/12 Q1009
  • 211250Z 19005KT 160V230 9999 SCT021 SCT060 BKN070 15/12 Q1009
  • 211220Z 16007KT 140V200 9999 FEW010 SCT030 BKN080 16/12 Q1009
  • 211150Z 13006KT 110V180 9999 FEW010 SCT040 17/12 Q1009
  • 211120Z 16008KT 9999 FEW010 SCT014 BKN045 16/13 Q1010
  • 211050Z 17010KT 9999 SCT012 SCT014 BKN047 14/12 Q1010

TAF TAF LSZB
Valide du 21 à 15h jusqu'au 22 à 00h UTC


211425Z 2115/2124 15007KT 9999 SCT040 BKN060
PROB40
TEMPO 2115/2124 SHRA FEW050TCU
PROB30 2115/2118 TSRA FEW040CB
ATIS : +41 22 417 40 76



MET'MAP, la Météo Aéronautique d'un coup d'oeil ! - Copyright ORBIFLY Décembre 2007 - Disclaimer

ORBIFLY MET'MAP TEAM :

Programmation & Développement : Alexandra Zaïnal
Sur une idée originale de : Baudouin d'Aumeries
Soutien technique & logistique : Manuel Goepfert
Assistance : Marc-Olivier Méhu




SOURCES & CREDITS :

   NOAA